sensor_id;sensor_type;location;lat;lon;timestamp;pressure;altitude;pressure_sealevel;temperature;humidity
19751;BME280;4663;49.120;9.730;2023-02-01T00:01:25;98640.47;;;0.42;89.75
19751;BME280;4663;49.120;9.730;2023-02-01T12:04:53;98497.09;;;2.78;75.59
19751;BME280;4663;49.120;9.730;2023-02-01T12:13:24;98518.56;;;2.77;74.54
19751;BME280;4663;49.120;9.730;2023-02-01T12:21:08;98512.88;;;2.36;75.12
19751;BME280;4663;49.120;9.730;2023-02-01T12:23:50;98513.97;;;2.33;76.91
19751;BME280;4663;49.120;9.730;2023-02-01T12:29:20;98519.78;;;2.04;78.02
19751;BME280;4663;49.120;9.730;2023-02-01T12:32:20;98532.03;;;2.30;81.76
19751;BME280;4663;49.120;9.730;2023-02-01T12:45:42;98534.28;;;2.00;80.59
19751;BME280;4663;49.120;9.730;2023-02-01T12:48:28;98521.19;;;1.85;83.04
19751;BME280;4663;49.120;9.730;2023-02-01T12:51:02;98518.28;;;1.88;82.33
19751;BME280;4663;49.120;9.730;2023-02-01T12:53:47;98529.00;;;2.11;82.90
19751;BME280;4663;49.120;9.730;2023-02-01T12:56:24;98498.25;;;2.19;78.02
19751;BME280;4663;49.120;9.730;2023-02-01T12:58:53;98504.03;;;2.01;78.73
19751;BME280;4663;49.120;9.730;2023-02-01T13:01:40;98499.56;;;2.01;78.65
19751;BME280;4663;49.120;9.730;2023-02-01T13:04:12;98509.38;;;2.24;79.69
19751;BME280;4663;49.120;9.730;2023-02-01T13:06:48;98493.63;;;2.09;76.70
19751;BME280;4663;49.120;9.730;2023-02-01T13:09:55;98490.09;;;2.32;76.88
19751;BME280;4663;49.120;9.730;2023-02-01T13:12:33;98500.41;;;2.59;77.17
19751;BME280;4663;49.120;9.730;2023-02-01T13:15:23;98484.66;;;2.45;76.69
19751;BME280;4663;49.120;9.730;2023-02-01T13:17:51;98496.53;;;2.52;77.30
19751;BME280;4663;49.120;9.730;2023-02-01T13:23:27;98482.44;;;2.61;76.66
19751;BME280;4663;49.120;9.730;2023-02-01T13:25:55;98476.06;;;2.30;77.86
19751;BME280;4663;49.120;9.730;2023-02-01T13:42:49;98483.56;;;2.36;78.08
19751;BME280;4663;49.120;9.730;2023-02-01T13:45:18;98471.22;;;2.46;76.57
19751;BME280;4663;49.120;9.730;2023-02-01T13:47:47;98472.66;;;2.62;76.96
19751;BME280;4663;49.120;9.730;2023-02-01T13:52:44;98462.41;;;2.34;77.10
19751;BME280;4663;49.120;9.730;2023-02-01T13:57:46;98475.34;;;2.39;77.83
19751;BME280;4663;49.120;9.730;2023-02-01T14:00:33;98450.13;;;2.43;76.34
19751;BME280;4663;49.120;9.730;2023-02-01T14:10:48;98452.88;;;2.76;75.56
19751;BME280;4663;49.120;9.730;2023-02-01T14:26:21;98478.00;;;2.27;76.04
19751;BME280;4663;49.120;9.730;2023-02-01T14:34:17;98498.84;;;2.22;76.47
19751;BME280;4663;49.120;9.730;2023-02-01T14:36:47;98484.16;;;2.05;77.67
19751;BME280;4663;49.120;9.730;2023-02-01T14:41:56;98478.09;;;1.80;77.85
19751;BME280;4663;49.120;9.730;2023-02-01T14:44:28;98486.59;;;1.97;77.51
19751;BME280;4663;49.120;9.730;2023-02-01T14:49:32;98495.56;;;1.96;78.60
19751;BME280;4663;49.120;9.730;2023-02-01T14:51:59;98495.97;;;1.78;78.54
19751;BME280;4663;49.120;9.730;2023-02-01T14:54:25;98504.38;;;1.85;77.86
19751;BME280;4663;49.120;9.730;2023-02-01T14:56:52;98514.16;;;1.84;78.89
19751;BME280;4663;49.120;9.730;2023-02-01T14:59:20;98510.75;;;1.71;78.33
19751;BME280;4663;49.120;9.730;2023-02-01T15:01:55;98507.63;;;1.88;78.32
19751;BME280;4663;49.120;9.730;2023-02-01T15:04:26;98490.78;;;1.76;76.62
19751;BME280;4663;49.120;9.730;2023-02-01T15:06:56;98511.63;;;1.83;77.56
19751;BME280;4663;49.120;9.730;2023-02-01T15:17:35;98520.00;;;2.01;76.89
19751;BME280;4663;49.120;9.730;2023-02-01T15:20:13;98522.44;;;2.04;77.30
19751;BME280;4663;49.120;9.730;2023-02-01T15:22:40;98518.88;;;1.81;79.18
19751;BME280;4663;49.120;9.730;2023-02-01T15:25:17;98502.06;;;1.80;76.86
19751;BME280;4663;49.120;9.730;2023-02-01T15:27:42;98498.13;;;1.61;78.84
19751;BME280;4663;49.120;9.730;2023-02-01T15:30:17;98492.59;;;1.76;78.07
19751;BME280;4663;49.120;9.730;2023-02-01T15:32:42;98489.34;;;1.48;76.35
19751;BME280;4663;49.120;9.730;2023-02-01T15:43:21;98498.06;;;1.74;78.73
19751;BME280;4663;49.120;9.730;2023-02-01T15:46:15;98495.50;;;1.37;78.29
19751;BME280;4663;49.120;9.730;2023-02-01T15:48:47;98499.22;;;1.59;78.94
19751;BME280;4663;49.120;9.730;2023-02-01T15:51:22;98522.13;;;1.73;79.82
19751;BME280;4663;49.120;9.730;2023-02-01T15:53:51;98509.75;;;1.60;77.71
19751;BME280;4663;49.120;9.730;2023-02-01T15:56:22;98499.78;;;1.51;78.12
19751;BME280;4663;49.120;9.730;2023-02-01T15:58:51;98519.44;;;1.61;79.98
19751;BME280;4663;49.120;9.730;2023-02-01T16:01:17;98508.28;;;1.32;80.61
19751;BME280;4663;49.120;9.730;2023-02-01T16:03:45;98497.63;;;1.32;78.91
19751;BME280;4663;49.120;9.730;2023-02-01T16:11:31;98508.66;;;1.38;79.70
19751;BME280;4663;49.120;9.730;2023-02-01T16:13:58;98513.31;;;1.48;80.19
19751;BME280;4663;49.120;9.730;2023-02-01T16:16:26;98510.53;;;1.49;81.02
19751;BME280;4663;49.120;9.730;2023-02-01T16:18:51;98513.72;;;1.06;81.27
19751;BME280;4663;49.120;9.730;2023-02-01T16:21:17;98517.84;;;1.34;80.17
19751;BME280;4663;49.120;9.730;2023-02-01T16:23:42;98510.97;;;1.07;81.88
19751;BME280;4663;49.120;9.730;2023-02-01T16:26:08;98518.09;;;1.31;80.43
19751;BME280;4663;49.120;9.730;2023-02-01T16:28:33;98512.94;;;1.17;81.14
19751;BME280;4663;49.120;9.730;2023-02-01T16:30:59;98510.28;;;1.17;80.79
19751;BME280;4663;49.120;9.730;2023-02-01T16:33:25;98506.50;;;0.95;82.23
19751;BME280;4663;49.120;9.730;2023-02-01T16:35:51;98508.25;;;0.96;81.14
19751;BME280;4663;49.120;9.730;2023-02-01T16:38:19;98516.44;;;0.55;83.20
19751;BME280;4663;49.120;9.730;2023-02-01T16:40:47;98500.44;;;0.68;82.14
19751;BME280;4663;49.120;9.730;2023-02-01T16:43:21;98493.66;;;0.64;82.39
19751;BME280;4663;49.120;9.730;2023-02-01T16:45:48;98491.44;;;0.58;81.71
19751;BME280;4663;49.120;9.730;2023-02-01T16:48:28;98484.97;;;0.86;81.38
19751;BME280;4663;49.120;9.730;2023-02-01T16:50:56;98488.47;;;0.87;80.89
19751;BME280;4663;49.120;9.730;2023-02-01T16:53:24;98492.69;;;1.03;80.88
19751;BME280;4663;49.120;9.730;2023-02-01T16:55:50;98481.53;;;0.97;79.35
19751;BME280;4663;49.120;9.730;2023-02-01T16:58:17;98484.09;;;0.99;79.84
19751;BME280;4663;49.120;9.730;2023-02-01T17:00:43;98487.69;;;0.98;79.52
19751;BME280;4663;49.120;9.730;2023-02-01T17:03:13;98484.97;;;0.86;79.61
19751;BME280;4663;49.120;9.730;2023-02-01T17:05:43;98484.47;;;0.81;79.65
19751;BME280;4663;49.120;9.730;2023-02-01T17:08:13;98492.00;;;0.88;79.87
19751;BME280;4663;49.120;9.730;2023-02-01T17:13:15;98493.63;;;0.77;80.64
19751;BME280;4663;49.120;9.730;2023-02-01T17:15:52;98495.66;;;0.73;80.70
19751;BME280;4663;49.120;9.730;2023-02-01T17:18:19;98505.06;;;0.53;82.55
19751;BME280;4663;49.120;9.730;2023-02-01T17:20:44;98499.31;;;0.59;82.17
19751;BME280;4663;49.120;9.730;2023-02-01T17:23:13;98492.94;;;0.86;81.09
19751;BME280;4663;49.120;9.730;2023-02-01T17:25:38;98495.69;;;0.85;81.61
19751;BME280;4663;49.120;9.730;2023-02-01T17:28:03;98502.00;;;0.84;81.35
19751;BME280;4663;49.120;9.730;2023-02-01T17:30:29;98491.19;;;0.74;80.77
19751;BME280;4663;49.120;9.730;2023-02-01T17:33:30;98502.34;;;0.79;80.59
19751;BME280;4663;49.120;9.730;2023-02-01T17:36:21;98505.38;;;0.99;79.21
19751;BME280;4663;49.120;9.730;2023-02-01T17:39:12;98502.22;;;1.05;78.39
19751;BME280;4663;49.120;9.730;2023-02-01T17:42:04;98508.81;;;1.12;78.63
19751;BME280;4663;49.120;9.730;2023-02-01T17:48:21;98515.09;;;1.11;80.50
19751;BME280;4663;49.120;9.730;2023-02-01T17:51:17;98523.97;;;0.99;80.28
19751;BME280;4663;49.120;9.730;2023-02-01T17:54:14;98521.06;;;1.02;80.36
19751;BME280;4663;49.120;9.730;2023-02-01T17:57:11;98518.97;;;1.19;80.17
19751;BME280;4663;49.120;9.730;2023-02-01T18:00:04;98504.47;;;1.11;79.24
19751;BME280;4663;49.120;9.730;2023-02-01T18:02:55;98509.94;;;0.97;78.98
19751;BME280;4663;49.120;9.730;2023-02-01T18:05:46;98495.13;;;1.06;79.58
19751;BME280;4663;49.120;9.730;2023-02-01T18:08:36;98493.88;;;1.23;78.71
19751;BME280;4663;49.120;9.730;2023-02-01T18:11:27;98491.16;;;1.11;79.58
19751;BME280;4663;49.120;9.730;2023-02-01T18:14:17;98490.56;;;0.95;79.11
19751;BME280;4663;49.120;9.730;2023-02-01T18:17:07;98496.97;;;1.17;79.57
19751;BME280;4663;49.120;9.730;2023-02-01T18:19:58;98496.53;;;1.23;79.15
19751;BME280;4663;49.120;9.730;2023-02-01T18:22:50;98488.72;;;1.33;78.28
19751;BME280;4663;49.120;9.730;2023-02-01T18:25:40;98495.84;;;1.32;78.15
19751;BME280;4663;49.120;9.730;2023-02-01T18:28:32;98497.53;;;1.09;79.18
19751;BME280;4663;49.120;9.730;2023-02-01T18:31:25;98483.66;;;1.17;78.93
19751;BME280;4663;49.120;9.730;2023-02-01T18:34:16;98491.66;;;1.17;79.40
19751;BME280;4663;49.120;9.730;2023-02-01T18:37:06;98481.13;;;1.15;79.00
19751;BME280;4663;49.120;9.730;2023-02-01T18:39:57;98483.50;;;1.07;78.74
19751;BME280;4663;49.120;9.730;2023-02-01T18:42:49;98501.09;;;1.45;78.78
19751;BME280;4663;49.120;9.730;2023-02-01T18:45:44;98485.59;;;1.15;78.52
19751;BME280;4663;49.120;9.730;2023-02-01T18:48:34;98503.38;;;1.14;79.07
19751;BME280;4663;49.120;9.730;2023-02-01T18:51:26;98492.41;;;0.94;79.40
19751;BME280;4663;49.120;9.730;2023-02-01T18:54:16;98492.53;;;0.80;79.84
19751;BME280;4663;49.120;9.730;2023-02-01T18:57:07;98483.28;;;0.85;78.55
19751;BME280;4663;49.120;9.730;2023-02-01T18:59:58;98492.50;;;0.93;79.70
19751;BME280;4663;49.120;9.730;2023-02-01T19:02:50;98495.66;;;0.98;79.98
19751;BME280;4663;49.120;9.730;2023-02-01T19:05:40;98485.22;;;0.83;79.94
19751;BME280;4663;49.120;9.730;2023-02-01T19:08:31;98482.00;;;0.78;79.81
19751;BME280;4663;49.120;9.730;2023-02-01T19:11:23;98480.03;;;0.69;79.07
19751;BME280;4663;49.120;9.730;2023-02-01T19:14:13;98481.97;;;0.91;78.79
19751;BME280;4663;49.120;9.730;2023-02-01T19:17:03;98491.88;;;0.89;78.85
19751;BME280;4663;49.120;9.730;2023-02-01T19:19:54;98489.56;;;0.84;78.65
19751;BME280;4663;49.120;9.730;2023-02-01T19:22:46;98509.19;;;0.57;79.76
19751;BME280;4663;49.120;9.730;2023-02-01T19:25:37;98501.00;;;0.60;79.95
19751;BME280;4663;49.120;9.730;2023-02-01T19:28:27;98499.44;;;0.58;79.64
19751;BME280;4663;49.120;9.730;2023-02-01T19:31:18;98498.66;;;0.69;78.94
19751;BME280;4663;49.120;9.730;2023-02-01T19:34:10;98502.91;;;0.58;80.56
19751;BME280;4663;49.120;9.730;2023-02-01T19:37:01;98496.41;;;0.63;78.94
19751;BME280;4663;49.120;9.730;2023-02-01T19:39:52;98502.38;;;0.91;78.23
19751;BME280;4663;49.120;9.730;2023-02-01T19:42:43;98491.88;;;0.89;79.32
19751;BME280;4663;49.120;9.730;2023-02-01T19:45:33;98492.09;;;0.86;78.09
19751;BME280;4663;49.120;9.730;2023-02-01T19:48:23;98498.38;;;1.09;78.12
19751;BME280;4663;49.120;9.730;2023-02-01T19:51:14;98505.72;;;0.81;79.30
19751;BME280;4663;49.120;9.730;2023-02-01T19:54:07;98514.06;;;1.25;77.81
19751;BME280;4663;49.120;9.730;2023-02-01T19:56:58;98527.47;;;1.24;79.57
19751;BME280;4663;49.120;9.730;2023-02-01T19:59:48;98499.72;;;0.91;78.02
19751;BME280;4663;49.120;9.730;2023-02-01T20:02:39;98520.69;;;1.20;79.29
19751;BME280;4663;49.120;9.730;2023-02-01T20:05:30;98526.91;;;1.07;79.73
19751;BME280;4663;49.120;9.730;2023-02-01T20:08:21;98509.81;;;0.98;78.89
19751;BME280;4663;49.120;9.730;2023-02-01T20:11:14;98527.25;;;1.27;79.41
19751;BME280;4663;49.120;9.730;2023-02-01T20:14:04;98527.81;;;1.19;79.47
19751;BME280;4663;49.120;9.730;2023-02-01T20:16:56;98519.03;;;1.30;78.17
19751;BME280;4663;49.120;9.730;2023-02-01T20:19:47;98522.66;;;1.29;78.24
19751;BME280;4663;49.120;9.730;2023-02-01T20:22:37;98522.72;;;1.41;79.45
19751;BME280;4663;49.120;9.730;2023-02-01T20:25:28;98517.63;;;1.37;78.05
19751;BME280;4663;49.120;9.730;2023-02-01T20:28:18;98522.94;;;1.37;78.30
19751;BME280;4663;49.120;9.730;2023-02-01T20:31:09;98523.63;;;1.28;79.38
19751;BME280;4663;49.120;9.730;2023-02-01T20:34:00;98519.63;;;1.22;79.26
19751;BME280;4663;49.120;9.730;2023-02-01T20:36:51;98515.34;;;1.44;78.76
19751;BME280;4663;49.120;9.730;2023-02-01T20:39:42;98522.50;;;1.44;78.55
19751;BME280;4663;49.120;9.730;2023-02-01T20:42:33;98527.34;;;1.50;79.42
19751;BME280;4663;49.120;9.730;2023-02-01T20:44:59;98516.50;;;1.53;78.59
19751;BME280;4663;49.120;9.730;2023-02-01T20:47:25;98506.19;;;1.24;77.87
19751;BME280;4663;49.120;9.730;2023-02-01T20:49:50;98516.41;;;1.42;78.55
19751;BME280;4663;49.120;9.730;2023-02-01T20:52:15;98515.44;;;1.43;78.61
19751;BME280;4663;49.120;9.730;2023-02-01T20:54:41;98522.97;;;1.49;79.24
19751;BME280;4663;49.120;9.730;2023-02-01T20:57:06;98528.38;;;1.36;79.50
19751;BME280;4663;49.120;9.730;2023-02-01T20:59:32;98515.53;;;1.30;77.90
19751;BME280;4663;49.120;9.730;2023-02-01T21:01:57;98527.88;;;1.31;79.79
19751;BME280;4663;49.120;9.730;2023-02-01T21:04:24;98515.88;;;1.25;78.38
19751;BME280;4663;49.120;9.730;2023-02-01T21:06:54;98520.94;;;1.52;79.65
19751;BME280;4663;49.120;9.730;2023-02-01T21:09:19;98520.09;;;1.52;78.87
19751;BME280;4663;49.120;9.730;2023-02-01T21:11:45;98519.16;;;1.53;78.56
19751;BME280;4663;49.120;9.730;2023-02-01T21:14:11;98522.25;;;1.47;79.42
19751;BME280;4663;49.120;9.730;2023-02-01T21:16:36;98522.75;;;1.52;79.87
19751;BME280;4663;49.120;9.730;2023-02-01T21:19:02;98505.84;;;1.53;77.88
19751;BME280;4663;49.120;9.730;2023-02-01T21:21:28;98513.59;;;1.56;79.29
19751;BME280;4663;49.120;9.730;2023-02-01T21:23:55;98511.56;;;1.35;80.33
19751;BME280;4663;49.120;9.730;2023-02-01T21:26:22;98499.81;;;1.27;79.55
19751;BME280;4663;49.120;9.730;2023-02-01T21:28:49;98505.66;;;1.43;79.63
19751;BME280;4663;49.120;9.730;2023-02-01T21:31:16;98510.66;;;1.48;79.67
19751;BME280;4663;49.120;9.730;2023-02-01T21:33:43;98502.00;;;1.08;80.47
19751;BME280;4663;49.120;9.730;2023-02-01T21:36:11;98493.91;;;1.59;79.66
19751;BME280;4663;49.120;9.730;2023-02-01T21:38:51;98494.75;;;1.59;78.75
19751;BME280;4663;49.120;9.730;2023-02-01T21:41:19;98508.97;;;1.47;80.18
19751;BME280;4663;49.120;9.730;2023-02-01T21:44:04;98508.44;;;1.42;80.21
19751;BME280;4663;49.120;9.730;2023-02-01T21:46:29;98512.22;;;1.50;79.44
19751;BME280;4663;49.120;9.730;2023-02-01T21:48:55;98509.63;;;1.62;78.40
19751;BME280;4663;49.120;9.730;2023-02-01T21:51:20;98525.38;;;1.41;80.70
19751;BME280;4663;49.120;9.730;2023-02-01T21:53:46;98518.19;;;1.54;79.44
19751;BME280;4663;49.120;9.730;2023-02-01T21:56:11;98518.22;;;1.66;78.97
19751;BME280;4663;49.120;9.730;2023-02-01T21:58:37;98519.66;;;1.58;79.76
19751;BME280;4663;49.120;9.730;2023-02-01T22:01:02;98512.13;;;1.28;80.23
19751;BME280;4663;49.120;9.730;2023-02-01T22:03:28;98527.13;;;1.53;80.14
19751;BME280;4663;49.120;9.730;2023-02-01T22:05:53;98512.50;;;1.34;80.52
19751;BME280;4663;49.120;9.730;2023-02-01T22:08:19;98515.94;;;1.36;80.43
19751;BME280;4663;49.120;9.730;2023-02-01T22:10:45;98521.03;;;1.40;79.31
19751;BME280;4663;49.120;9.730;2023-02-01T22:13:11;98541.50;;;1.50;81.45
19751;BME280;4663;49.120;9.730;2023-02-01T22:15:36;98532.06;;;1.46;81.82
19751;BME280;4663;49.120;9.730;2023-02-01T22:18:02;98539.88;;;1.36;83.73
19751;BME280;4663;49.120;9.730;2023-02-01T22:20:27;98532.28;;;1.43;83.45
19751;BME280;4663;49.120;9.730;2023-02-01T22:22:53;98528.72;;;1.31;84.05
19751;BME280;4663;49.120;9.730;2023-02-01T22:25:20;98526.91;;;1.56;83.89
19751;BME280;4663;49.120;9.730;2023-02-01T22:27:46;98530.41;;;1.32;85.20
19751;BME280;4663;49.120;9.730;2023-02-01T22:30:11;98512.06;;;1.16;86.17
19751;BME280;4663;49.120;9.730;2023-02-01T22:32:37;98534.25;;;1.04;87.02
19751;BME280;4663;49.120;9.730;2023-02-01T22:35:02;98525.63;;;1.13;86.39
19751;BME280;4663;49.120;9.730;2023-02-01T22:37:29;98537.81;;;0.91;87.48
19751;BME280;4663;49.120;9.730;2023-02-01T22:39:55;98530.78;;;1.03;85.42
19751;BME280;4663;49.120;9.730;2023-02-01T22:42:22;98532.09;;;1.09;85.98
19751;BME280;4663;49.120;9.730;2023-02-01T22:44:48;98526.00;;;1.20;85.84
19751;BME280;4663;49.120;9.730;2023-02-01T22:47:13;98524.06;;;1.22;84.67
19751;BME280;4663;49.120;9.730;2023-02-01T22:49:39;98531.66;;;1.15;83.88
19751;BME280;4663;49.120;9.730;2023-02-01T22:52:04;98536.66;;;1.20;85.30
19751;BME280;4663;49.120;9.730;2023-02-01T22:54:29;98525.38;;;1.16;83.16
19751;BME280;4663;49.120;9.730;2023-02-01T22:56:55;98527.25;;;1.27;83.74
19751;BME280;4663;49.120;9.730;2023-02-01T22:59:20;98534.31;;;1.40;83.38
19751;BME280;4663;49.120;9.730;2023-02-01T23:01:45;98530.88;;;1.26;82.96
19751;BME280;4663;49.120;9.730;2023-02-01T23:04:13;98553.06;;;1.38;84.32
19751;BME280;4663;49.120;9.730;2023-02-01T23:06:39;98545.97;;;1.50;83.78
19751;BME280;4663;49.120;9.730;2023-02-01T23:09:08;98549.44;;;1.39;84.98
19751;BME280;4663;49.120;9.730;2023-02-01T23:11:38;98556.69;;;1.37;85.43
19751;BME280;4663;49.120;9.730;2023-02-01T23:14:04;98557.69;;;1.47;85.26
19751;BME280;4663;49.120;9.730;2023-02-01T23:16:29;98546.81;;;1.26;85.96
19751;BME280;4663;49.120;9.730;2023-02-01T23:18:54;98545.47;;;1.20;86.65
19751;BME280;4663;49.120;9.730;2023-02-01T23:21:22;98536.19;;;1.26;84.85
19751;BME280;4663;49.120;9.730;2023-02-01T23:23:50;98558.03;;;1.43;85.87
19751;BME280;4663;49.120;9.730;2023-02-01T23:26:17;98554.69;;;1.28;87.17
19751;BME280;4663;49.120;9.730;2023-02-01T23:28:43;98554.13;;;1.11;87.05
19751;BME280;4663;49.120;9.730;2023-02-01T23:31:10;98545.72;;;1.17;88.68
19751;BME280;4663;49.120;9.730;2023-02-01T23:33:36;98551.97;;;1.16;89.48
19751;BME280;4663;49.120;9.730;2023-02-01T23:36:04;98542.69;;;1.22;88.79
19751;BME280;4663;49.120;9.730;2023-02-01T23:38:30;98544.47;;;1.10;89.14
19751;BME280;4663;49.120;9.730;2023-02-01T23:41:04;98551.44;;;1.24;89.40
19751;BME280;4663;49.120;9.730;2023-02-01T23:43:30;98542.00;;;1.07;89.18
19751;BME280;4663;49.120;9.730;2023-02-01T23:46:16;98544.22;;;0.76;91.25
19751;BME280;4663;49.120;9.730;2023-02-01T23:48:42;98548.78;;;0.86;91.64
19751;BME280;4663;49.120;9.730;2023-02-01T23:51:08;98540.72;;;1.12;90.83
19751;BME280;4663;49.120;9.730;2023-02-01T23:53:34;98532.69;;;1.01;91.06
19751;BME280;4663;49.120;9.730;2023-02-01T23:56:00;98527.34;;;1.01;91.44
19751;BME280;4663;49.120;9.730;2023-02-01T23:58:25;98536.59;;;1.08;91.95
